createdAt,value
2019-01-13T00:00:47.246Z,95749.30
2019-01-13T00:03:14.398Z,95750.85
2019-01-13T00:05:41.493Z,95748.09
2019-01-13T00:08:08.616Z,95743.80
2019-01-13T00:10:35.703Z,95752.77
2019-01-13T00:13:02.813Z,95752.06
2019-01-13T00:15:29.911Z,95745.12
2019-01-13T00:17:57.041Z,95760.02
2019-01-13T00:20:24.125Z,95757.67
2019-01-13T00:22:51.221Z,95747.39
2019-01-13T00:25:18.384Z,95748.91
2019-01-13T00:27:45.481Z,95750.12
2019-01-13T00:30:19.166Z,95747.47
2019-01-13T00:32:42.137Z,95741.04
2019-01-13T00:35:09.225Z,95755.73
2019-01-13T00:37:36.284Z,95759.39
2019-01-13T00:40:07.252Z,95745.12
2019-01-13T00:42:34.377Z,95745.12
2019-01-13T00:45:01.481Z,95748.09
2019-01-13T00:47:28.543Z,95745.75
2019-01-13T00:49:55.629Z,95746.56
2019-01-13T00:52:22.779Z,95741.04
2019-01-13T00:54:49.858Z,95750.85
2019-01-13T00:57:16.971Z,95735.73
2019-01-13T00:59:44.040Z,95742.98
2019-01-13T01:02:11.113Z,95751.75
2019-01-13T01:04:38.243Z,95739.63
2019-01-13T01:07:05.522Z,95739.63
2019-01-13T01:09:32.636Z,95747.08
2019-01-13T01:11:59.759Z,95745.44
2019-01-13T01:14:26.841Z,95746.45
2019-01-13T01:16:53.901Z,95748.28
2019-01-13T01:19:21.004Z,95752.18
2019-01-13T01:21:48.080Z,95747.89
2019-01-13T01:24:15.198Z,95752.88
2019-01-13T01:26:42.324Z,95746.26
2019-01-13T01:29:09.423Z,95747.78
2019-01-13T01:31:36.486Z,95744.00
2019-01-13T01:34:03.683Z,95747.36
2019-01-13T01:36:30.841Z,95746.23
2019-01-13T01:38:57.906Z,95739.29
2019-01-13T01:41:25.000Z,95742.45
2019-01-13T01:43:52.087Z,95755.30
2019-01-13T01:46:19.200Z,95741.23
2019-01-13T01:48:46.271Z,95733.80
2019-01-13T01:51:13.358Z,95741.44
2019-01-13T01:53:40.434Z,95735.94
2019-01-13T01:56:07.517Z,95747.66
2019-01-13T01:58:34.595Z,95741.34
2019-01-13T02:01:01.682Z,95742.28
2019-01-13T02:03:28.763Z,95733.09
2019-01-13T02:05:55.833Z,95742.28
2019-01-13T02:08:22.978Z,95739.74
2019-01-13T02:10:50.024Z,95744.53
2019-01-13T02:13:17.115Z,95744.84
2019-01-13T02:15:44.179Z,95752.71
2019-01-13T02:18:11.241Z,95753.02
2019-01-13T02:20:38.299Z,95756.30
2019-01-13T02:23:05.410Z,95751.10
2019-01-13T02:25:32.469Z,95760.89
2019-01-13T02:27:59.509Z,95757.11
2019-01-13T02:30:26.940Z,95751.08
2019-01-13T02:32:54.046Z,95755.56
2019-01-13T02:35:21.133Z,95747.89
2019-01-13T02:37:48.189Z,95762.27
2019-01-13T02:40:17.173Z,95761.26
2019-01-13T02:42:44.333Z,95758.80
2019-01-13T02:45:13.957Z,95754.20
2019-01-13T02:47:41.023Z,95758.18
2019-01-13T02:50:08.416Z,95745.95
2019-01-13T02:52:35.487Z,95747.78
2019-01-13T02:55:02.663Z,95753.89
2019-01-13T02:57:29.733Z,95746.65
2019-01-13T02:59:56.799Z,95748.48
2019-01-13T03:02:23.863Z,95753.70
2019-01-13T03:04:50.939Z,95746.96
2019-01-13T03:07:18.006Z,95746.34
2019-01-13T03:09:45.071Z,95751.52
2019-01-13T03:12:12.105Z,95752.34
2019-01-13T03:14:39.164Z,95751.22
2019-01-13T03:17:06.215Z,95752.23
2019-01-13T03:19:33.288Z,95759.98
2019-01-13T03:22:00.331Z,95750.59
2019-01-13T03:24:27.413Z,95752.51
2019-01-13T03:26:54.480Z,95748.84
2019-01-13T03:29:21.524Z,95756.36
2019-01-13T03:31:48.568Z,95755.55
2019-01-13T03:34:15.633Z,95756.56
2019-01-13T03:36:42.694Z,95756.25
2019-01-13T03:39:09.764Z,95749.94
2019-01-13T03:41:36.839Z,95750.56
2019-01-13T03:44:03.994Z,95742.53
2019-01-13T03:46:31.070Z,95742.10
2019-01-13T03:48:58.124Z,95734.58
2019-01-13T03:51:25.203Z,95737.66
2019-01-13T03:53:52.300Z,95749.19
2019-01-13T03:56:19.339Z,95741.55
2019-01-13T03:58:46.354Z,95739.52
2019-01-13T04:01:18.523Z,95745.64
2019-01-13T04:03:42.383Z,95739.83
2019-01-13T04:06:09.426Z,95751.25
2019-01-13T04:08:36.483Z,95749.41
2019-01-13T04:11:03.566Z,95754.20
2019-01-13T04:13:30.665Z,95754.29
2019-01-13T04:16:02.573Z,95768.98
2019-01-13T04:18:29.635Z,95755.76
2019-01-13T04:20:56.695Z,95758.72
2019-01-13T04:23:23.719Z,95762.70
2019-01-13T04:25:50.822Z,95763.63
2019-01-13T04:28:17.890Z,95761.91
2019-01-13T04:30:44.948Z,95768.53
2019-01-13T04:33:12.021Z,95772.00
2019-01-13T04:35:39.090Z,95774.66
2019-01-13T04:38:06.140Z,95772.39
2019-01-13T04:40:33.195Z,95775.16
2019-01-13T04:43:00.246Z,95769.04
2019-01-13T04:45:27.305Z,95773.95
2019-01-13T04:47:54.373Z,95774.88
2019-01-13T04:50:21.439Z,95770.90
2019-01-13T04:52:48.493Z,95770.90
2019-01-13T04:55:15.559Z,95766.81
2019-01-13T04:57:42.596Z,95767.01
2019-01-13T05:00:12.665Z,95766.70
2019-01-13T05:02:39.725Z,95765.17
2019-01-13T05:05:07.665Z,95765.88
2019-01-13T05:07:34.735Z,95764.75
2019-01-13T05:10:01.938Z,95756.48
2019-01-13T05:12:28.998Z,95763.55
2019-01-13T05:14:56.032Z,95760.08
2019-01-13T05:17:23.101Z,95766.90
2019-01-13T05:19:50.145Z,95769.75
2019-01-13T05:22:17.215Z,95767.91
2019-01-13T05:24:44.276Z,95764.64
2019-01-13T05:27:11.307Z,95767.80
2019-01-13T05:29:38.344Z,95760.47
2019-01-13T05:32:05.394Z,95765.45
2019-01-13T05:34:32.441Z,95765.57
2019-01-13T05:36:59.498Z,95771.44
2019-01-13T05:39:26.560Z,95760.61
2019-01-13T05:41:53.616Z,95757.66
2019-01-13T05:44:20.672Z,95762.45
2019-01-13T05:46:47.754Z,95757.95
2019-01-13T05:49:14.828Z,95755.78
2019-01-13T05:51:41.891Z,95759.05
2019-01-13T05:54:08.959Z,95758.63
2019-01-13T05:56:36.014Z,95762.19
2019-01-13T05:59:03.066Z,95762.50
2019-01-13T06:01:30.135Z,95757.91
2019-01-13T06:03:57.191Z,95761.56
2019-01-13T06:06:24.267Z,95750.34
2019-01-13T06:08:51.316Z,95756.47
2019-01-13T06:11:18.381Z,95751.67
2019-01-13T06:13:45.406Z,95751.98
2019-01-13T06:16:12.444Z,95754.63
2019-01-13T06:18:39.459Z,95744.05
2019-01-13T06:21:06.496Z,95734.98
2019-01-13T06:23:33.537Z,95734.92
2019-01-13T06:26:00.608Z,95749.08
2019-01-13T06:28:27.664Z,95749.93
2019-01-13T06:30:54.706Z,95743.41
2019-01-13T06:33:21.768Z,95746.98
2019-01-13T06:35:48.807Z,95748.80
2019-01-13T06:38:15.859Z,95749.73
2019-01-13T06:40:42.884Z,95753.20
2019-01-13T06:43:09.904Z,95745.64
2019-01-13T06:45:36.940Z,95754.63
2019-01-13T06:48:03.974Z,95751.55
2019-01-13T06:50:31.012Z,95760.12
2019-01-13T06:52:58.055Z,95746.27
2019-01-13T06:55:25.102Z,95751.55
2019-01-13T06:57:52.145Z,95756.23
2019-01-13T07:00:21.076Z,95758.47
2019-01-13T07:02:48.121Z,95752.16
2019-01-13T07:05:15.156Z,95757.86
2019-01-13T07:07:42.177Z,95750.92
2019-01-13T07:10:09.398Z,95758.88
2019-01-13T07:12:36.439Z,95748.91
2019-01-13T07:15:05.591Z,95754.30
2019-01-13T07:17:32.611Z,95753.40
2019-01-13T07:19:59.673Z,95747.98
2019-01-13T07:22:26.696Z,95752.78
2019-01-13T07:24:53.731Z,95746.26
2019-01-13T07:27:20.769Z,95752.18
2019-01-13T07:29:47.800Z,95753.09
2019-01-13T07:32:14.845Z,95745.84
2019-01-13T07:34:41.869Z,95740.52
2019-01-13T07:37:08.935Z,95734.91
2019-01-13T07:39:35.987Z,95741.95
2019-01-13T07:42:03.049Z,95737.45
2019-01-13T07:44:30.073Z,95733.65
2019-01-13T07:46:57.145Z,95741.92
2019-01-13T07:49:24.192Z,95733.06
2019-01-13T07:51:51.249Z,95730.41
2019-01-13T07:54:18.279Z,95737.58
2019-01-13T07:56:45.357Z,95725.84
2019-01-13T07:59:12.404Z,95719.99
2019-01-13T08:01:39.469Z,95725.98
2019-01-13T08:04:06.513Z,95725.22
2019-01-13T08:06:33.568Z,95723.84
2019-01-13T08:09:00.660Z,95723.06
2019-01-13T08:11:27.711Z,95725.94
2019-01-13T08:13:54.776Z,95714.80
2019-01-13T08:16:21.832Z,95719.45
2019-01-13T08:18:48.879Z,95720.41
2019-01-13T08:21:15.954Z,95724.75
2019-01-13T08:23:43.000Z,95726.59
2019-01-13T08:26:10.063Z,95732.94
2019-01-13T08:28:37.105Z,95721.39
2019-01-13T08:31:04.164Z,95721.44
2019-01-13T08:33:31.196Z,95722.56
2019-01-13T08:35:58.274Z,95705.71
2019-01-13T08:38:25.372Z,95718.08
2019-01-13T08:40:52.444Z,95705.82
2019-01-13T08:43:19.495Z,95702.65
2019-01-13T08:45:50.243Z,95692.54
2019-01-13T08:48:15.512Z,95688.25
2019-01-13T08:50:42.576Z,95685.59
2019-01-13T08:53:09.672Z,95682.84
2019-01-13T08:55:36.736Z,95683.08
2019-01-13T08:58:03.786Z,95683.28
2019-01-13T09:00:34.362Z,95685.33
2019-01-13T09:03:03.012Z,95685.13
2019-01-13T09:05:30.064Z,95683.48
2019-01-13T09:07:57.121Z,95680.11
2019-01-13T09:10:24.171Z,95682.77
2019-01-13T09:12:56.609Z,95683.08
2019-01-13T09:15:21.346Z,95676.20
2019-01-13T09:17:48.617Z,95681.75
2019-01-13T09:20:17.961Z,95677.97
2019-01-13T09:22:45.234Z,95679.36
2019-01-13T09:25:13.118Z,95673.84
2019-01-13T09:27:40.211Z,95677.93
2019-01-13T09:30:11.209Z,95674.05
2019-01-13T09:32:39.670Z,95669.84
2019-01-13T09:35:06.857Z,95670.06
2019-01-13T09:37:33.918Z,95669.55
2019-01-13T09:40:00.957Z,95670.57
2019-01-13T09:42:28.039Z,95669.34
2019-01-13T09:44:55.093Z,95663.20
2019-01-13T09:47:22.177Z,95665.36
2019-01-13T09:49:50.048Z,95649.72
2019-01-13T09:52:17.493Z,95655.64
2019-01-13T09:54:44.579Z,95646.65
2019-01-13T09:57:11.686Z,95637.86
2019-01-13T09:59:38.763Z,95643.98
2019-01-13T10:02:05.859Z,95637.44
2019-01-13T10:04:32.939Z,95635.61
2019-01-13T10:07:00.020Z,95627.42
2019-01-13T10:09:27.089Z,95621.59
2019-01-13T10:11:54.144Z,95616.80
2019-01-13T10:14:21.252Z,95608.52
2019-01-13T10:16:48.435Z,95599.80
2019-01-13T10:19:15.534Z,95592.64
2019-01-13T10:21:42.643Z,95591.50
2019-01-13T10:24:09.749Z,95586.28
2019-01-13T10:26:36.874Z,95580.24
2019-01-13T10:29:04.011Z,95574.72
2019-01-13T10:31:31.115Z,95559.59
2019-01-13T10:33:58.208Z,95554.78
2019-01-13T10:36:25.323Z,95548.45
2019-01-13T10:38:52.412Z,95535.46
2019-01-13T10:41:19.506Z,95530.45
2019-01-13T10:43:46.600Z,95523.65
2019-01-13T10:46:13.767Z,95524.25
2019-01-13T10:48:40.865Z,95514.22
2019-01-13T10:51:07.985Z,95511.14
2019-01-13T10:53:35.061Z,95502.34
2019-01-13T10:56:02.256Z,95498.66
2019-01-13T10:58:29.364Z,95499.18
2019-01-13T11:00:56.464Z,95493.86
2019-01-13T11:03:23.871Z,95488.33
2019-01-13T11:05:51.103Z,95489.97
2019-01-13T11:08:18.218Z,95489.20
2019-01-13T11:10:45.358Z,95474.23
2019-01-13T11:13:12.465Z,95471.41
2019-01-13T11:15:39.581Z,95480.44
2019-01-13T11:18:06.796Z,95475.98
2019-01-13T11:20:38.306Z,95471.27
2019-01-13T11:23:05.600Z,95467.80
2019-01-13T11:25:32.714Z,95470.02
2019-01-13T11:27:59.852Z,95465.35
2019-01-13T11:30:27.078Z,95464.38
2019-01-13T11:32:54.182Z,95463.69
2019-01-13T11:35:21.310Z,95460.16
2019-01-13T11:37:48.729Z,95463.38
2019-01-13T11:40:18.094Z,95454.21
2019-01-13T11:42:45.667Z,95463.21
2019-01-13T11:45:14.941Z,95467.57
2019-01-13T11:47:42.269Z,95455.36
2019-01-13T11:50:13.049Z,95453.86
2019-01-13T11:52:40.995Z,95448.61
2019-01-13T11:55:09.173Z,95435.16
2019-01-13T11:57:36.335Z,95435.28
2019-01-13T12:00:06.648Z,95437.55
2019-01-13T12:02:34.580Z,95420.41
2019-01-13T12:05:01.940Z,95414.74
2019-01-13T12:07:29.073Z,95410.07
2019-01-13T12:09:56.201Z,95407.33
2019-01-13T12:12:23.298Z,95387.63
2019-01-13T12:14:50.437Z,95379.88
2019-01-13T12:17:17.630Z,95377.73
2019-01-13T12:19:44.831Z,95372.63
2019-01-13T12:22:11.955Z,95360.69
2019-01-13T12:24:39.063Z,95346.89
2019-01-13T12:27:06.179Z,95360.47
2019-01-13T12:29:33.312Z,95341.28
2019-01-13T12:32:01.963Z,95335.97
2019-01-13T12:34:29.367Z,95339.95
2019-01-13T12:36:56.871Z,95327.41
2019-01-13T12:39:25.007Z,95325.52
2019-01-13T12:41:52.172Z,95317.98
2019-01-13T12:44:20.332Z,95315.02
2019-01-13T12:46:47.489Z,95308.60
2019-01-13T12:49:14.925Z,95305.05
2019-01-13T12:51:42.115Z,95295.67
2019-01-13T12:54:10.735Z,95292.20
2019-01-13T12:56:37.898Z,95280.48
2019-01-13T12:59:04.995Z,95278.63
2019-01-13T13:01:32.137Z,95278.84
2019-01-13T13:03:59.347Z,95279.28
2019-01-13T13:06:26.549Z,95270.75
2019-01-13T13:08:54.075Z,95266.47
2019-01-13T13:11:21.252Z,95253.92
2019-01-13T13:13:48.398Z,95257.09
2019-01-13T13:16:15.595Z,95250.67
2019-01-13T13:18:42.767Z,95249.77
2019-01-13T13:21:11.487Z,95229.48
2019-01-13T13:23:38.630Z,95222.34
2019-01-13T13:26:05.768Z,95220.72
2019-01-13T13:28:33.876Z,95214.00
2019-01-13T13:31:01.007Z,95220.84
2019-01-13T13:33:28.204Z,95212.88
2019-01-13T13:35:55.413Z,95202.27
2019-01-13T13:38:22.594Z,95198.29
2019-01-13T13:40:50.868Z,95191.95
2019-01-13T13:43:18.016Z,95196.53
2019-01-13T13:45:45.157Z,95183.27
2019-01-13T13:48:13.936Z,95177.23
2019-01-13T13:50:41.375Z,95171.63
2019-01-13T13:53:10.836Z,95172.44
2019-01-13T13:55:37.980Z,95165.50
2019-01-13T13:58:05.228Z,95165.30
2019-01-13T14:00:36.443Z,95160.58
2019-01-13T14:03:04.079Z,95145.17
2019-01-13T14:05:31.263Z,95143.33
2019-01-13T14:07:58.443Z,95121.59
2019-01-13T14:10:36.559Z,95120.05
2019-01-13T14:13:04.081Z,95109.73
2019-01-13T14:15:31.247Z,95124.63
2019-01-13T14:17:58.451Z,95116.81
2019-01-13T14:20:26.914Z,95119.47
2019-01-13T14:22:54.063Z,95110.48
2019-01-13T14:25:23.309Z,95113.05
2019-01-13T14:27:50.601Z,95118.66
2019-01-13T14:30:20.448Z,95110.53
2019-01-13T14:32:47.607Z,95097.03
2019-01-13T14:35:14.771Z,95110.31
2019-01-13T14:37:42.090Z,95107.66
2019-01-13T14:40:13.248Z,95096.00
2019-01-13T14:42:40.847Z,95097.33
2019-01-13T14:45:12.550Z,95078.67
2019-01-13T14:47:40.089Z,95092.93
2019-01-13T14:50:10.607Z,95087.33
2019-01-13T14:52:38.036Z,95073.47
2019-01-13T14:55:06.025Z,95056.14
2019-01-13T14:57:33.601Z,95060.85
2019-01-13T15:00:01.025Z,95054.22
2019-01-13T15:02:28.522Z,95042.72
2019-01-13T15:04:55.900Z,95027.83
2019-01-13T15:07:23.157Z,95030.27
2019-01-13T15:09:52.829Z,95042.50
2019-01-13T15:12:20.303Z,95027.61
2019-01-13T15:14:47.955Z,95023.63
2019-01-13T15:17:21.476Z,95019.65
2019-01-13T15:19:49.521Z,95019.50
2019-01-13T15:22:17.386Z,95002.55
2019-01-13T15:24:46.701Z,95004.17
2019-01-13T15:27:14.660Z,94996.11
2019-01-13T15:29:42.947Z,94983.06
2019-01-13T15:32:11.700Z,94981.28
2019-01-13T15:34:40.240Z,94987.99
2019-01-13T15:37:08.175Z,94995.00
2019-01-13T15:39:35.757Z,94972.43
2019-01-13T15:42:03.899Z,94968.74
2019-01-13T15:44:31.585Z,94967.67
2019-01-13T15:46:59.433Z,94972.31
2019-01-13T15:49:30.083Z,94954.55
2019-01-13T15:51:57.638Z,94937.73
2019-01-13T15:54:24.962Z,94920.19
2019-01-13T15:56:52.188Z,94926.02
2019-01-13T15:59:19.700Z,94924.17
2019-01-13T16:01:46.965Z,94922.84
2019-01-13T16:04:15.587Z,94918.82
2019-01-13T16:06:43.079Z,94932.13
2019-01-13T16:09:10.819Z,94913.10
2019-01-13T16:11:40.175Z,94909.34
2019-01-13T16:14:07.693Z,94893.09
2019-01-13T16:16:34.983Z,94887.23
2019-01-13T16:19:02.387Z,94877.09
2019-01-13T16:21:30.261Z,94878.94
2019-01-13T16:24:00.119Z,94883.73
2019-01-13T16:26:27.321Z,94874.44
2019-01-13T16:28:55.049Z,94872.41
2019-01-13T16:31:23.904Z,94869.75
2019-01-13T16:33:52.210Z,94867.31
2019-01-13T16:36:20.315Z,94866.80
2019-01-13T16:38:49.747Z,94863.34
2019-01-13T16:41:18.022Z,94869.64
2019-01-13T16:43:45.436Z,94866.99
2019-01-13T16:46:12.875Z,94873.44
2019-01-13T16:48:41.091Z,94871.88
2019-01-13T16:51:09.361Z,94865.61
2019-01-13T16:53:37.525Z,94865.64
2019-01-13T16:56:07.501Z,94861.37
2019-01-13T16:58:35.725Z,94851.45
2019-01-13T17:01:03.663Z,94861.55
2019-01-13T17:03:31.405Z,94846.63
2019-01-13T17:06:01.409Z,94842.82
2019-01-13T17:08:29.685Z,94825.26
2019-01-13T17:10:59.290Z,94828.44
2019-01-13T17:13:31.080Z,94824.63
2019-01-13T17:15:59.520Z,94822.56
2019-01-13T17:18:27.595Z,94830.88
2019-01-13T17:20:55.474Z,94831.30
2019-01-13T17:23:23.652Z,94839.20
2019-01-13T17:25:51.769Z,94842.25
2019-01-13T17:28:22.397Z,94842.89
2019-01-13T17:30:53.677Z,94827.76
2019-01-13T17:33:25.332Z,94835.67
2019-01-13T17:35:53.544Z,94828.22
2019-01-13T17:38:24.111Z,94817.71
2019-01-13T17:40:53.533Z,94810.55
2019-01-13T17:43:21.859Z,94809.57
2019-01-13T17:45:49.886Z,94805.13
2019-01-13T17:48:19.633Z,94809.11
2019-01-13T17:50:48.318Z,94789.27
2019-01-13T17:53:16.222Z,94786.73
2019-01-13T17:55:44.315Z,94796.78
2019-01-13T17:58:12.805Z,94784.82
2019-01-13T18:00:53.555Z,94789.04
2019-01-13T18:03:43.407Z,94785.52
2019-01-13T18:06:13.230Z,94800.94
2019-01-13T18:08:42.068Z,94783.09
2019-01-13T18:11:11.643Z,94787.13
2019-01-13T18:13:40.539Z,94791.69
2019-01-13T18:16:10.259Z,94767.63
2019-01-13T18:18:39.360Z,94769.52
2019-01-13T18:21:09.432Z,94758.95
2019-01-13T18:23:40.517Z,94745.48
2019-01-13T18:26:09.018Z,94755.06
2019-01-13T18:28:37.886Z,94745.81
2019-01-13T18:31:07.702Z,94755.95
2019-01-13T18:33:36.872Z,94744.61
2019-01-13T18:36:07.821Z,94738.20
2019-01-13T18:38:37.639Z,94713.41
2019-01-13T18:41:06.144Z,94726.58
2019-01-13T18:43:39.643Z,94717.98
2019-01-13T18:46:09.074Z,94724.03
2019-01-13T18:48:37.481Z,94728.53
2019-01-13T18:51:06.680Z,94728.48
2019-01-13T18:53:35.731Z,94727.80
2019-01-13T18:56:05.520Z,94716.12
2019-01-13T18:58:34.099Z,94710.52
2019-01-13T19:01:05.096Z,94696.94
2019-01-13T19:03:34.707Z,94698.84
2019-01-13T19:06:03.883Z,94699.41
2019-01-13T19:08:32.615Z,94686.69
2019-01-13T19:11:23.902Z,94694.95
2019-01-13T19:14:12.769Z,94693.52
2019-01-13T19:16:49.801Z,94691.91
2019-01-13T19:19:17.835Z,94689.02
2019-01-13T19:21:46.913Z,94669.41
2019-01-13T19:24:15.357Z,94649.23
2019-01-13T19:26:44.091Z,94666.80
2019-01-13T19:29:14.286Z,94664.71
2019-01-13T19:31:43.169Z,94647.77
2019-01-13T19:34:11.384Z,94640.26
2019-01-13T19:36:43.305Z,94638.93
2019-01-13T19:39:12.305Z,94646.29
2019-01-13T19:41:40.554Z,94632.19
2019-01-13T19:44:08.497Z,94660.86
2019-01-13T19:46:38.584Z,94618.94
2019-01-13T19:49:06.911Z,94624.73
2019-01-13T19:51:35.506Z,94620.08
2019-01-13T19:54:04.058Z,94628.58
2019-01-13T19:56:33.848Z,94603.27
2019-01-13T19:59:02.859Z,94612.58
2019-01-13T20:01:33.142Z,94614.58
2019-01-13T20:04:02.744Z,94617.38
2019-01-13T20:06:31.997Z,94613.72
2019-01-13T20:09:01.046Z,94616.90
2019-01-13T20:11:31.072Z,94607.59
2019-01-13T20:14:04.470Z,94608.68
2019-01-13T20:16:33.829Z,94616.48
2019-01-13T20:19:05.236Z,94601.20
2019-01-13T20:21:33.419Z,94576.27
2019-01-13T20:24:01.586Z,94585.81
2019-01-13T20:26:29.646Z,94585.81
2019-01-13T20:28:58.924Z,94581.05
2019-01-13T20:31:27.438Z,94585.85
2019-01-13T20:33:56.175Z,94583.72
2019-01-13T20:36:26.869Z,94581.06
2019-01-13T20:38:56.203Z,94564.77
2019-01-13T20:41:23.908Z,94552.52
2019-01-13T20:43:54.549Z,94567.30
2019-01-13T20:46:25.651Z,94554.57
2019-01-13T20:48:54.759Z,94543.08
2019-01-13T20:51:25.901Z,94543.32
2019-01-13T20:53:53.855Z,94544.61
2019-01-13T20:56:22.762Z,94560.32
2019-01-13T20:58:50.712Z,94547.70
2019-01-13T21:01:18.511Z,94538.27
2019-01-13T21:03:46.695Z,94546.81
2019-01-13T21:06:14.177Z,94544.95
2019-01-13T21:08:42.393Z,94536.22
2019-01-13T21:11:09.753Z,94535.73
2019-01-13T21:13:37.408Z,94524.41
2019-01-13T21:16:04.994Z,94524.98
2019-01-13T21:18:32.484Z,94535.91
2019-01-13T21:20:59.963Z,94533.97
2019-01-13T21:23:27.192Z,94527.64
2019-01-13T21:25:54.412Z,94533.48
2019-01-13T21:28:22.721Z,94527.69
2019-01-13T21:30:51.782Z,94545.78
2019-01-13T21:33:18.974Z,94534.82
2019-01-13T21:35:46.883Z,94532.44
2019-01-13T21:38:15.413Z,94525.51
2019-01-13T21:40:42.579Z,94528.17
2019-01-13T21:43:11.091Z,94531.67
2019-01-13T21:45:38.235Z,94510.08
2019-01-13T21:48:05.372Z,94518.58
2019-01-13T21:50:32.800Z,94514.78
2019-01-13T21:52:59.924Z,94513.41
2019-01-13T21:55:27.194Z,94520.27
2019-01-13T21:57:54.312Z,94517.03
2019-01-13T22:00:23.728Z,94521.34
2019-01-13T22:02:50.946Z,94511.03
2019-01-13T22:05:18.074Z,94508.38
2019-01-13T22:07:45.161Z,94495.64
2019-01-13T22:10:14.553Z,94485.52
2019-01-13T22:12:41.652Z,94504.95
2019-01-13T22:15:09.923Z,94486.85
2019-01-13T22:17:37.035Z,94501.20
2019-01-13T22:20:05.561Z,94495.92
2019-01-13T22:22:32.656Z,94501.77
2019-01-13T22:24:59.729Z,94500.11
2019-01-13T22:27:26.829Z,94501.16
2019-01-13T22:29:53.903Z,94503.30
2019-01-13T22:32:20.982Z,94500.88
2019-01-13T22:34:48.075Z,94499.30
2019-01-13T22:37:15.130Z,94498.86
2019-01-13T22:39:42.215Z,94494.87
2019-01-13T22:42:09.246Z,94496.69
2019-01-13T22:44:36.328Z,94513.41
2019-01-13T22:47:03.663Z,94522.95
2019-01-13T22:49:30.740Z,94517.72
2019-01-13T22:51:57.770Z,94520.47
2019-01-13T22:54:25.938Z,94541.02
2019-01-13T22:56:53.028Z,94528.53
2019-01-13T22:59:20.061Z,94543.64
2019-01-13T23:01:47.411Z,94535.70
2019-01-13T23:04:15.642Z,94540.22
2019-01-13T23:06:42.813Z,94553.04
2019-01-13T23:09:10.966Z,94556.11
2019-01-13T23:11:38.025Z,94565.42
2019-01-13T23:14:06.799Z,94566.05
2019-01-13T23:16:34.076Z,94550.61
2019-01-13T23:19:01.126Z,94539.23
2019-01-13T23:21:28.196Z,94556.86
2019-01-13T23:23:55.251Z,94549.59
2019-01-13T23:26:22.297Z,94549.84
2019-01-13T23:28:49.329Z,94553.31
2019-01-13T23:31:16.386Z,94551.63
2019-01-13T23:33:43.409Z,94560.91
2019-01-13T23:36:10.474Z,94537.16
2019-01-13T23:38:37.497Z,94542.72
2019-01-13T23:41:04.563Z,94541.66
2019-01-13T23:43:31.615Z,94541.38
2019-01-13T23:45:58.651Z,94546.34
2019-01-13T23:48:25.699Z,94534.94
2019-01-13T23:50:52.731Z,94547.23
2019-01-13T23:53:19.783Z,94545.38
2019-01-13T23:55:46.831Z,94540.62
2019-01-13T23:58:13.897Z,94535.02
